sensor_id;sensor_type;location;lat;lon;timestamp;P1;durP1;ratioP1;P2;durP2;ratioP2
18532;SDS011;9396;51.510;11.934;2023-05-10T00:00:19;3.77;;;3.27;;
18532;SDS011;9396;51.510;11.934;2023-05-10T00:02:47;7.37;;;3.17;;
18532;SDS011;9396;51.510;11.934;2023-05-10T00:05:14;3.70;;;3.13;;
18532;SDS011;9396;51.510;11.934;2023-05-10T00:07:40;4.60;;;2.97;;
18532;SDS011;9396;51.510;11.934;2023-05-10T00:10:09;4.27;;;3.43;;
18532;SDS011;9396;51.510;11.934;2023-05-10T00:12:36;5.90;;;3.87;;
18532;SDS011;9396;51.510;11.934;2023-05-10T00:15:03;4.37;;;3.43;;
18532;SDS011;9396;51.510;11.934;2023-05-10T00:17:31;4.80;;;3.50;;
18532;SDS011;9396;51.510;11.934;2023-05-10T00:19:58;3.30;;;2.90;;
18532;SDS011;9396;51.510;11.934;2023-05-10T00:22:25;5.93;;;3.23;;
18532;SDS011;9396;51.510;11.934;2023-05-10T00:24:52;4.60;;;3.60;;
18532;SDS011;9396;51.510;11.934;2023-05-10T00:27:18;6.67;;;3.50;;
18532;SDS011;9396;51.510;11.934;2023-05-10T00:29:45;4.63;;;3.30;;
18532;SDS011;9396;51.510;11.934;2023-05-10T00:32:11;3.53;;;3.20;;
18532;SDS011;9396;51.510;11.934;2023-05-10T00:34:40;3.87;;;3.50;;
18532;SDS011;9396;51.510;11.934;2023-05-10T00:37:06;6.60;;;3.87;;
18532;SDS011;9396;51.510;11.934;2023-05-10T00:39:33;3.80;;;3.23;;
18532;SDS011;9396;51.510;11.934;2023-05-10T00:42:00;3.63;;;3.20;;
18532;SDS011;9396;51.510;11.934;2023-05-10T00:44:26;5.23;;;3.20;;
18532;SDS011;9396;51.510;11.934;2023-05-10T00:46:53;6.83;;;3.87;;
18532;SDS011;9396;51.510;11.934;2023-05-10T00:49:20;5.90;;;3.43;;
18532;SDS011;9396;51.510;11.934;2023-05-10T00:51:48;6.47;;;3.77;;
18532;SDS011;9396;51.510;11.934;2023-05-10T00:54:15;4.17;;;2.87;;
18532;SDS011;9396;51.510;11.934;2023-05-10T00:56:42;3.80;;;3.37;;
18532;SDS011;9396;51.510;11.934;2023-05-10T00:59:13;5.10;;;3.97;;
18532;SDS011;9396;51.510;11.934;2023-05-10T01:01:40;6.20;;;3.97;;
18532;SDS011;9396;51.510;11.934;2023-05-10T01:04:07;8.03;;;3.73;;
18532;SDS011;9396;51.510;11.934;2023-05-10T01:06:35;5.47;;;3.93;;
18532;SDS011;9396;51.510;11.934;2023-05-10T01:09:03;9.40;;;3.97;;
18532;SDS011;9396;51.510;11.934;2023-05-10T01:11:31;4.63;;;3.33;;
18532;SDS011;9396;51.510;11.934;2023-05-10T01:13:58;4.40;;;3.23;;
18532;SDS011;9396;51.510;11.934;2023-05-10T01:16:25;4.33;;;3.43;;
18532;SDS011;9396;51.510;11.934;2023-05-10T01:18:53;5.40;;;3.60;;
18532;SDS011;9396;51.510;11.934;2023-05-10T01:21:22;9.90;;;3.90;;
18532;SDS011;9396;51.510;11.934;2023-05-10T01:24:02;6.90;;;3.60;;
18532;SDS011;9396;51.510;11.934;2023-05-10T01:27:15;4.53;;;3.43;;
18532;SDS011;9396;51.510;11.934;2023-05-10T01:32:58;6.20;;;3.53;;
18532;SDS011;9396;51.510;11.934;2023-05-10T01:35:30;8.07;;;3.80;;
18532;SDS011;9396;51.510;11.934;2023-05-10T01:38:04;4.47;;;3.60;;
18532;SDS011;9396;51.510;11.934;2023-05-10T01:40:39;3.90;;;3.50;;
18532;SDS011;9396;51.510;11.934;2023-05-10T01:43:14;3.83;;;3.33;;
18532;SDS011;9396;51.510;11.934;2023-05-10T01:45:46;4.97;;;3.63;;
18532;SDS011;9396;51.510;11.934;2023-05-10T01:48:22;4.20;;;3.57;;
18532;SDS011;9396;51.510;11.934;2023-05-10T01:50:52;4.40;;;3.53;;
18532;SDS011;9396;51.510;11.934;2023-05-10T01:53:20;7.23;;;3.80;;
18532;SDS011;9396;51.510;11.934;2023-05-10T01:55:48;9.03;;;3.90;;
18532;SDS011;9396;51.510;11.934;2023-05-10T01:58:19;4.30;;;3.90;;
18532;SDS011;9396;51.510;11.934;2023-05-10T02:00:49;7.73;;;4.00;;
18532;SDS011;9396;51.510;11.934;2023-05-10T02:03:18;4.63;;;3.47;;
18532;SDS011;9396;51.510;11.934;2023-05-10T02:05:49;4.20;;;3.53;;
18532;SDS011;9396;51.510;11.934;2023-05-10T02:08:18;4.90;;;3.77;;
18532;SDS011;9396;51.510;11.934;2023-05-10T02:10:47;7.23;;;4.17;;
18532;SDS011;9396;51.510;11.934;2023-05-10T02:13:15;5.63;;;3.60;;
18532;SDS011;9396;51.510;11.934;2023-05-10T02:15:43;4.90;;;3.70;;
18532;SDS011;9396;51.510;11.934;2023-05-10T02:18:30;5.93;;;3.60;;
18532;SDS011;9396;51.510;11.934;2023-05-10T02:21:05;5.27;;;3.83;;
18532;SDS011;9396;51.510;11.934;2023-05-10T02:23:33;4.70;;;3.60;;
18532;SDS011;9396;51.510;11.934;2023-05-10T02:26:01;6.27;;;4.03;;
18532;SDS011;9396;51.510;11.934;2023-05-10T02:28:30;4.67;;;4.07;;
18532;SDS011;9396;51.510;11.934;2023-05-10T02:30:58;6.70;;;4.17;;
18532;SDS011;9396;51.510;11.934;2023-05-10T02:33:26;4.50;;;3.77;;
18532;SDS011;9396;51.510;11.934;2023-05-10T02:35:55;5.10;;;3.80;;
18532;SDS011;9396;51.510;11.934;2023-05-10T02:38:23;5.57;;;4.37;;
18532;SDS011;9396;51.510;11.934;2023-05-10T02:40:51;4.70;;;3.50;;
18532;SDS011;9396;51.510;11.934;2023-05-10T02:43:19;6.30;;;3.80;;
18532;SDS011;9396;51.510;11.934;2023-05-10T02:45:48;7.63;;;4.10;;
18532;SDS011;9396;51.510;11.934;2023-05-10T02:48:15;5.20;;;4.00;;
18532;SDS011;9396;51.510;11.934;2023-05-10T02:50:43;4.63;;;4.03;;
18532;SDS011;9396;51.510;11.934;2023-05-10T02:53:15;4.70;;;3.70;;
18532;SDS011;9396;51.510;11.934;2023-05-10T02:55:45;5.40;;;3.73;;
18532;SDS011;9396;51.510;11.934;2023-05-10T02:58:16;5.03;;;3.83;;
18532;SDS011;9396;51.510;11.934;2023-05-10T03:00:44;4.80;;;4.27;;
18532;SDS011;9396;51.510;11.934;2023-05-10T03:03:11;5.70;;;4.10;;
18532;SDS011;9396;51.510;11.934;2023-05-10T03:05:38;6.70;;;3.93;;
18532;SDS011;9396;51.510;11.934;2023-05-10T03:08:04;4.87;;;4.13;;
18532;SDS011;9396;51.510;11.934;2023-05-10T03:10:32;4.03;;;3.60;;
18532;SDS011;9396;51.510;11.934;2023-05-10T03:13:06;9.37;;;5.13;;
18532;SDS011;9396;51.510;11.934;2023-05-10T03:15:42;6.00;;;3.60;;
18532;SDS011;9396;51.510;11.934;2023-05-10T03:18:18;7.77;;;4.00;;
18532;SDS011;9396;51.510;11.934;2023-05-10T03:20:49;6.13;;;4.40;;
18532;SDS011;9396;51.510;11.934;2023-05-10T03:23:21;4.60;;;4.00;;
18532;SDS011;9396;51.510;11.934;2023-05-10T03:25:54;5.43;;;4.13;;
18532;SDS011;9396;51.510;11.934;2023-05-10T03:28:21;5.73;;;3.73;;
18532;SDS011;9396;51.510;11.934;2023-05-10T03:30:52;4.60;;;3.87;;
18532;SDS011;9396;51.510;11.934;2023-05-10T03:33:19;4.93;;;4.40;;
18532;SDS011;9396;51.510;11.934;2023-05-10T03:35:46;6.10;;;4.33;;
18532;SDS011;9396;51.510;11.934;2023-05-10T03:38:13;4.80;;;3.70;;
18532;SDS011;9396;51.510;11.934;2023-05-10T03:40:39;6.63;;;3.73;;
18532;SDS011;9396;51.510;11.934;2023-05-10T03:43:07;6.43;;;4.30;;
18532;SDS011;9396;51.510;11.934;2023-05-10T03:45:34;5.77;;;3.77;;
18532;SDS011;9396;51.510;11.934;2023-05-10T03:48:01;9.53;;;4.90;;
18532;SDS011;9396;51.510;11.934;2023-05-10T03:50:27;4.77;;;3.73;;
18532;SDS011;9396;51.510;11.934;2023-05-10T03:52:54;5.63;;;4.23;;
18532;SDS011;9396;51.510;11.934;2023-05-10T03:55:21;7.20;;;4.43;;
18532;SDS011;9396;51.510;11.934;2023-05-10T03:57:48;5.47;;;4.10;;
18532;SDS011;9396;51.510;11.934;2023-05-10T04:00:17;5.27;;;4.07;;
18532;SDS011;9396;51.510;11.934;2023-05-10T04:02:43;6.10;;;4.23;;
18532;SDS011;9396;51.510;11.934;2023-05-10T04:05:10;8.07;;;4.30;;
18532;SDS011;9396;51.510;11.934;2023-05-10T04:07:37;8.57;;;3.97;;
18532;SDS011;9396;51.510;11.934;2023-05-10T04:10:04;6.77;;;3.80;;
18532;SDS011;9396;51.510;11.934;2023-05-10T04:12:31;6.17;;;3.63;;
18532;SDS011;9396;51.510;11.934;2023-05-10T04:14:58;4.20;;;3.70;;
18532;SDS011;9396;51.510;11.934;2023-05-10T04:17:26;6.63;;;3.60;;
18532;SDS011;9396;51.510;11.934;2023-05-10T04:19:53;6.60;;;4.33;;
18532;SDS011;9396;51.510;11.934;2023-05-10T04:22:20;10.23;;;3.63;;
18532;SDS011;9396;51.510;11.934;2023-05-10T04:24:46;7.97;;;4.07;;
18532;SDS011;9396;51.510;11.934;2023-05-10T04:27:13;4.80;;;3.70;;
18532;SDS011;9396;51.510;11.934;2023-05-10T04:29:40;4.60;;;3.60;;
18532;SDS011;9396;51.510;11.934;2023-05-10T04:32:06;7.80;;;4.43;;
18532;SDS011;9396;51.510;11.934;2023-05-10T04:34:36;7.40;;;4.03;;
18532;SDS011;9396;51.510;11.934;2023-05-10T04:37:03;7.37;;;3.53;;
18532;SDS011;9396;51.510;11.934;2023-05-10T04:39:29;9.37;;;3.90;;
18532;SDS011;9396;51.510;11.934;2023-05-10T04:41:56;9.13;;;4.30;;
18532;SDS011;9396;51.510;11.934;2023-05-10T04:44:23;7.57;;;4.20;;
18532;SDS011;9396;51.510;11.934;2023-05-10T04:46:49;5.27;;;4.13;;
18532;SDS011;9396;51.510;11.934;2023-05-10T04:49:16;7.10;;;3.70;;
18532;SDS011;9396;51.510;11.934;2023-05-10T04:51:44;5.10;;;3.87;;
18532;SDS011;9396;51.510;11.934;2023-05-10T04:54:10;10.70;;;3.77;;
18532;SDS011;9396;51.510;11.934;2023-05-10T04:56:37;8.40;;;3.90;;
18532;SDS011;9396;51.510;11.934;2023-05-10T04:59:04;5.67;;;3.77;;
18532;SDS011;9396;51.510;11.934;2023-05-10T05:01:30;5.10;;;3.73;;
18532;SDS011;9396;51.510;11.934;2023-05-10T05:03:57;5.10;;;3.73;;
18532;SDS011;9396;51.510;11.934;2023-05-10T05:06:24;9.07;;;3.80;;
18532;SDS011;9396;51.510;11.934;2023-05-10T05:08:53;5.10;;;4.00;;
18532;SDS011;9396;51.510;11.934;2023-05-10T05:11:20;4.40;;;3.70;;
18532;SDS011;9396;51.510;11.934;2023-05-10T05:13:47;9.13;;;3.97;;
18532;SDS011;9396;51.510;11.934;2023-05-10T05:16:13;6.07;;;3.60;;
18532;SDS011;9396;51.510;11.934;2023-05-10T05:18:40;6.70;;;3.57;;
18532;SDS011;9396;51.510;11.934;2023-05-10T05:21:13;4.77;;;3.00;;
18532;SDS011;9396;51.510;11.934;2023-05-10T05:23:40;5.10;;;3.40;;
18532;SDS011;9396;51.510;11.934;2023-05-10T05:26:08;5.80;;;3.50;;
18532;SDS011;9396;51.510;11.934;2023-05-10T05:28:35;10.67;;;3.40;;
18532;SDS011;9396;51.510;11.934;2023-05-10T05:31:03;5.97;;;3.37;;
18532;SDS011;9396;51.510;11.934;2023-05-10T05:33:30;7.20;;;3.37;;
18532;SDS011;9396;51.510;11.934;2023-05-10T05:35:57;6.47;;;3.20;;
18532;SDS011;9396;51.510;11.934;2023-05-10T05:38:27;7.23;;;4.03;;
18532;SDS011;9396;51.510;11.934;2023-05-10T05:40:54;7.27;;;3.77;;
18532;SDS011;9396;51.510;11.934;2023-05-10T05:43:22;5.43;;;3.03;;
18532;SDS011;9396;51.510;11.934;2023-05-10T05:45:49;3.87;;;3.37;;
18532;SDS011;9396;51.510;11.934;2023-05-10T05:48:15;7.57;;;3.70;;
18532;SDS011;9396;51.510;11.934;2023-05-10T05:50:42;6.27;;;3.33;;
18532;SDS011;9396;51.510;11.934;2023-05-10T05:53:08;5.23;;;3.60;;
18532;SDS011;9396;51.510;11.934;2023-05-10T05:55:35;7.47;;;3.73;;
18532;SDS011;9396;51.510;11.934;2023-05-10T05:58:02;8.23;;;3.90;;
18532;SDS011;9396;51.510;11.934;2023-05-10T06:00:30;6.73;;;3.70;;
18532;SDS011;9396;51.510;11.934;2023-05-10T06:02:57;6.27;;;3.37;;
18532;SDS011;9396;51.510;11.934;2023-05-10T06:05:23;7.63;;;3.37;;
18532;SDS011;9396;51.510;11.934;2023-05-10T06:07:50;7.87;;;3.57;;
18532;SDS011;9396;51.510;11.934;2023-05-10T06:10:16;7.77;;;3.63;;
18532;SDS011;9396;51.510;11.934;2023-05-10T06:12:43;12.77;;;3.57;;
18532;SDS011;9396;51.510;11.934;2023-05-10T06:15:10;7.13;;;3.33;;
18532;SDS011;9396;51.510;11.934;2023-05-10T06:17:38;5.40;;;3.43;;
18532;SDS011;9396;51.510;11.934;2023-05-10T06:20:05;6.80;;;3.47;;
18532;SDS011;9396;51.510;11.934;2023-05-10T06:22:33;6.13;;;3.60;;
18532;SDS011;9396;51.510;11.934;2023-05-10T06:24:59;12.07;;;3.87;;
18532;SDS011;9396;51.510;11.934;2023-05-10T06:27:27;4.50;;;3.23;;
18532;SDS011;9396;51.510;11.934;2023-05-10T06:29:53;4.37;;;3.00;;
18532;SDS011;9396;51.510;11.934;2023-05-10T06:32:20;5.43;;;3.27;;
18532;SDS011;9396;51.510;11.934;2023-05-10T06:34:48;3.73;;;3.10;;
18532;SDS011;9396;51.510;11.934;2023-05-10T06:37:15;11.03;;;4.10;;
18532;SDS011;9396;51.510;11.934;2023-05-10T06:39:41;5.17;;;3.20;;
18532;SDS011;9396;51.510;11.934;2023-05-10T06:42:08;6.53;;;3.27;;
18532;SDS011;9396;51.510;11.934;2023-05-10T06:44:35;7.03;;;3.20;;
18532;SDS011;9396;51.510;11.934;2023-05-10T06:47:01;6.07;;;3.50;;
18532;SDS011;9396;51.510;11.934;2023-05-10T06:49:28;7.97;;;3.13;;
18532;SDS011;9396;51.510;11.934;2023-05-10T06:51:56;7.87;;;3.20;;
18532;SDS011;9396;51.510;11.934;2023-05-10T06:54:23;5.83;;;3.30;;
18532;SDS011;9396;51.510;11.934;2023-05-10T06:56:49;11.43;;;3.50;;
18532;SDS011;9396;51.510;11.934;2023-05-10T06:59:16;12.73;;;3.27;;
18532;SDS011;9396;51.510;11.934;2023-05-10T07:01:44;5.20;;;3.10;;
18532;SDS011;9396;51.510;11.934;2023-05-10T07:04:11;5.93;;;3.43;;
18532;SDS011;9396;51.510;11.934;2023-05-10T07:06:37;4.70;;;3.23;;
18532;SDS011;9396;51.510;11.934;2023-05-10T07:09:05;6.87;;;3.23;;
18532;SDS011;9396;51.510;11.934;2023-05-10T07:11:32;6.17;;;3.50;;
18532;SDS011;9396;51.510;11.934;2023-05-10T07:13:59;4.53;;;3.37;;
18532;SDS011;9396;51.510;11.934;2023-05-10T07:16:26;10.43;;;3.43;;
18532;SDS011;9396;51.510;11.934;2023-05-10T07:18:52;7.70;;;3.50;;
18532;SDS011;9396;51.510;11.934;2023-05-10T07:21:19;7.07;;;3.53;;
18532;SDS011;9396;51.510;11.934;2023-05-10T07:23:46;6.13;;;3.47;;
18532;SDS011;9396;51.510;11.934;2023-05-10T07:26:14;6.63;;;3.40;;
18532;SDS011;9396;51.510;11.934;2023-05-10T07:28:40;4.97;;;3.10;;
18532;SDS011;9396;51.510;11.934;2023-05-10T07:31:07;6.67;;;3.63;;
18532;SDS011;9396;51.510;11.934;2023-05-10T07:33:34;7.97;;;3.53;;
18532;SDS011;9396;51.510;11.934;2023-05-10T07:36:00;4.83;;;3.43;;
18532;SDS011;9396;51.510;11.934;2023-05-10T07:38:27;7.43;;;3.77;;
18532;SDS011;9396;51.510;11.934;2023-05-10T07:40:53;6.33;;;3.17;;
18532;SDS011;9396;51.510;11.934;2023-05-10T07:43:21;4.73;;;3.50;;
18532;SDS011;9396;51.510;11.934;2023-05-10T07:45:48;7.03;;;3.57;;
18532;SDS011;9396;51.510;11.934;2023-05-10T07:48:15;6.00;;;3.57;;
18532;SDS011;9396;51.510;11.934;2023-05-10T07:50:41;4.73;;;3.67;;
18532;SDS011;9396;51.510;11.934;2023-05-10T07:53:09;8.03;;;3.90;;
18532;SDS011;9396;51.510;11.934;2023-05-10T07:55:35;7.83;;;3.90;;
18532;SDS011;9396;51.510;11.934;2023-05-10T07:58:02;4.33;;;3.50;;
18532;SDS011;9396;51.510;11.934;2023-05-10T08:00:30;6.67;;;4.07;;
18532;SDS011;9396;51.510;11.934;2023-05-10T08:02:57;8.73;;;4.00;;
18532;SDS011;9396;51.510;11.934;2023-05-10T08:05:23;4.97;;;3.63;;
18532;SDS011;9396;51.510;11.934;2023-05-10T08:07:50;7.80;;;4.13;;
18532;SDS011;9396;51.510;11.934;2023-05-10T08:10:17;6.43;;;3.90;;
18532;SDS011;9396;51.510;11.934;2023-05-10T08:12:43;4.90;;;4.03;;
18532;SDS011;9396;51.510;11.934;2023-05-10T08:15:10;7.03;;;4.03;;
18532;SDS011;9396;51.510;11.934;2023-05-10T08:17:38;5.33;;;3.80;;
18532;SDS011;9396;51.510;11.934;2023-05-10T08:20:05;6.87;;;4.40;;
18532;SDS011;9396;51.510;11.934;2023-05-10T08:22:32;6.03;;;4.30;;
18532;SDS011;9396;51.510;11.934;2023-05-10T08:24:59;4.90;;;4.00;;
18532;SDS011;9396;51.510;11.934;2023-05-10T08:27:26;6.10;;;4.77;;
18532;SDS011;9396;51.510;11.934;2023-05-10T08:29:52;5.50;;;4.87;;
18532;SDS011;9396;51.510;11.934;2023-05-10T08:32:19;6.00;;;4.67;;
18532;SDS011;9396;51.510;11.934;2023-05-10T08:34:47;7.03;;;5.13;;
18532;SDS011;9396;51.510;11.934;2023-05-10T08:37:14;8.10;;;5.37;;
18532;SDS011;9396;51.510;11.934;2023-05-10T08:39:41;9.37;;;5.07;;
18532;SDS011;9396;51.510;11.934;2023-05-10T08:42:08;8.93;;;4.90;;
18532;SDS011;9396;51.510;11.934;2023-05-10T08:44:35;10.60;;;7.43;;
18532;SDS011;9396;51.510;11.934;2023-05-10T08:47:04;8.10;;;6.33;;
18532;SDS011;9396;51.510;11.934;2023-05-10T08:49:32;7.80;;;6.47;;
18532;SDS011;9396;51.510;11.934;2023-05-10T08:52:02;7.77;;;6.53;;
18532;SDS011;9396;51.510;11.934;2023-05-10T08:54:31;8.60;;;6.47;;
18532;SDS011;9396;51.510;11.934;2023-05-10T08:56:58;7.77;;;6.80;;
18532;SDS011;9396;51.510;11.934;2023-05-10T08:59:25;6.70;;;5.20;;
18532;SDS011;9396;51.510;11.934;2023-05-10T09:01:51;8.30;;;6.00;;
18532;SDS011;9396;51.510;11.934;2023-05-10T09:04:20;8.07;;;6.07;;
18532;SDS011;9396;51.510;11.934;2023-05-10T09:06:47;8.10;;;5.80;;
18532;SDS011;9396;51.510;11.934;2023-05-10T09:09:15;6.80;;;5.73;;
18532;SDS011;9396;51.510;11.934;2023-05-10T09:11:43;8.20;;;5.90;;
18532;SDS011;9396;51.510;11.934;2023-05-10T09:14:10;7.07;;;6.27;;
18532;SDS011;9396;51.510;11.934;2023-05-10T09:16:39;6.37;;;5.73;;
18532;SDS011;9396;51.510;11.934;2023-05-10T09:19:06;9.37;;;5.93;;
18532;SDS011;9396;51.510;11.934;2023-05-10T09:21:33;7.70;;;5.83;;
18532;SDS011;9396;51.510;11.934;2023-05-10T09:24:02;7.53;;;6.40;;
18532;SDS011;9396;51.510;11.934;2023-05-10T09:26:31;7.77;;;6.33;;
18532;SDS011;9396;51.510;11.934;2023-05-10T09:28:58;8.10;;;5.93;;
18532;SDS011;9396;51.510;11.934;2023-05-10T09:31:42;8.40;;;6.40;;
18532;SDS011;9396;51.510;11.934;2023-05-10T09:34:11;9.73;;;6.50;;
18532;SDS011;9396;51.510;11.934;2023-05-10T09:36:50;11.93;;;5.93;;
18532;SDS011;9396;51.510;11.934;2023-05-10T09:39:17;9.07;;;6.07;;
18532;SDS011;9396;51.510;11.934;2023-05-10T09:41:45;7.77;;;5.80;;
18532;SDS011;9396;51.510;11.934;2023-05-10T09:44:14;8.23;;;6.03;;
18532;SDS011;9396;51.510;11.934;2023-05-10T09:46:45;8.60;;;6.20;;
18532;SDS011;9396;51.510;11.934;2023-05-10T09:49:15;9.17;;;6.27;;
18532;SDS011;9396;51.510;11.934;2023-05-10T09:51:41;9.77;;;6.73;;
18532;SDS011;9396;51.510;11.934;2023-05-10T09:54:08;8.37;;;6.50;;
18532;SDS011;9396;51.510;11.934;2023-05-10T09:56:36;7.37;;;6.67;;
18532;SDS011;9396;51.510;11.934;2023-05-10T09:59:06;8.47;;;6.27;;
18532;SDS011;9396;51.510;11.934;2023-05-10T10:01:34;7.03;;;6.33;;
18532;SDS011;9396;51.510;11.934;2023-05-10T10:04:02;9.30;;;6.20;;
18532;SDS011;9396;51.510;11.934;2023-05-10T10:06:34;9.50;;;6.80;;
18532;SDS011;9396;51.510;11.934;2023-05-10T10:09:02;8.03;;;6.23;;
18532;SDS011;9396;51.510;11.934;2023-05-10T10:11:29;6.67;;;5.97;;
18532;SDS011;9396;51.510;11.934;2023-05-10T10:13:56;6.63;;;5.93;;
18532;SDS011;9396;51.510;11.934;2023-05-10T10:16:24;7.37;;;5.70;;
18532;SDS011;9396;51.510;11.934;2023-05-10T10:18:51;7.27;;;5.07;;
18532;SDS011;9396;51.510;11.934;2023-05-10T10:21:17;7.03;;;4.63;;
18532;SDS011;9396;51.510;11.934;2023-05-10T10:23:45;6.47;;;4.90;;
18532;SDS011;9396;51.510;11.934;2023-05-10T10:26:12;8.03;;;4.77;;
18532;SDS011;9396;51.510;11.934;2023-05-10T10:28:41;5.40;;;4.60;;
18532;SDS011;9396;51.510;11.934;2023-05-10T10:31:17;5.00;;;4.50;;
18532;SDS011;9396;51.510;11.934;2023-05-10T10:33:56;5.10;;;4.57;;
18532;SDS011;9396;51.510;11.934;2023-05-10T10:36:27;6.73;;;4.53;;
18532;SDS011;9396;51.510;11.934;2023-05-10T10:38:58;4.50;;;3.97;;
18532;SDS011;9396;51.510;11.934;2023-05-10T10:41:30;5.17;;;2.70;;
18532;SDS011;9396;51.510;11.934;2023-05-10T10:47:02;2.30;;;2.10;;
18532;SDS011;9396;51.510;11.934;2023-05-10T10:49:33;2.00;;;1.80;;
18532;SDS011;9396;51.510;11.934;2023-05-10T10:52:13;1.70;;;1.60;;
18532;SDS011;9396;51.510;11.934;2023-05-10T10:54:42;1.90;;;1.60;;
18532;SDS011;9396;51.510;11.934;2023-05-10T10:57:17;2.40;;;1.90;;
18532;SDS011;9396;51.510;11.934;2023-05-10T10:59:46;1.60;;;1.40;;
18532;SDS011;9396;51.510;11.934;2023-05-10T11:05:22;2.03;;;1.50;;
18532;SDS011;9396;51.510;11.934;2023-05-10T11:07:51;1.93;;;1.73;;
18532;SDS011;9396;51.510;11.934;2023-05-10T11:10:19;1.73;;;1.63;;
18532;SDS011;9396;51.510;11.934;2023-05-10T11:12:52;3.53;;;1.70;;
18532;SDS011;9396;51.510;11.934;2023-05-10T11:15:28;2.40;;;1.50;;
18532;SDS011;9396;51.510;11.934;2023-05-10T11:17:56;1.77;;;1.67;;
18532;SDS011;9396;51.510;11.934;2023-05-10T11:20:23;2.03;;;1.70;;
18532;SDS011;9396;51.510;11.934;2023-05-10T11:22:58;2.73;;;2.03;;
18532;SDS011;9396;51.510;11.934;2023-05-10T11:25:40;1.97;;;1.77;;
18532;SDS011;9396;51.510;11.934;2023-05-10T11:28:09;3.53;;;2.30;;
18532;SDS011;9396;51.510;11.934;2023-05-10T11:30:37;3.20;;;2.10;;
18532;SDS011;9396;51.510;11.934;2023-05-10T11:33:06;2.90;;;2.20;;
18532;SDS011;9396;51.510;11.934;2023-05-10T11:35:36;2.40;;;2.20;;
18532;SDS011;9396;51.510;11.934;2023-05-10T11:38:05;2.13;;;1.93;;
18532;SDS011;9396;51.510;11.934;2023-05-10T11:40:32;2.10;;;1.83;;
18532;SDS011;9396;51.510;11.934;2023-05-10T11:42:59;1.50;;;1.40;;
18532;SDS011;9396;51.510;11.934;2023-05-10T11:45:26;1.20;;;1.10;;
18532;SDS011;9396;51.510;11.934;2023-05-10T11:47:54;1.40;;;1.30;;
18532;SDS011;9396;51.510;11.934;2023-05-10T11:50:22;4.03;;;1.77;;
18532;SDS011;9396;51.510;11.934;2023-05-10T11:52:50;2.23;;;1.83;;
18532;SDS011;9396;51.510;11.934;2023-05-10T11:55:17;1.93;;;1.73;;
18532;SDS011;9396;51.510;11.934;2023-05-10T11:57:44;2.37;;;2.10;;
18532;SDS011;9396;51.510;11.934;2023-05-10T12:00:11;2.90;;;1.70;;
18532;SDS011;9396;51.510;11.934;2023-05-10T12:02:38;2.00;;;1.80;;
18532;SDS011;9396;51.510;11.934;2023-05-10T12:05:05;2.03;;;1.90;;
18532;SDS011;9396;51.510;11.934;2023-05-10T12:07:34;1.90;;;1.60;;
18532;SDS011;9396;51.510;11.934;2023-05-10T12:10:08;2.30;;;1.50;;
18532;SDS011;9396;51.510;11.934;2023-05-10T12:12:37;2.03;;;1.83;;
18532;SDS011;9396;51.510;11.934;2023-05-10T12:15:10;2.60;;;2.00;;
18532;SDS011;9396;51.510;11.934;2023-05-10T12:17:38;2.87;;;1.90;;
18532;SDS011;9396;51.510;11.934;2023-05-10T12:20:14;2.30;;;1.97;;
18532;SDS011;9396;51.510;11.934;2023-05-10T12:22:48;2.13;;;1.93;;
18532;SDS011;9396;51.510;11.934;2023-05-10T12:25:17;2.63;;;2.00;;
18532;SDS011;9396;51.510;11.934;2023-05-10T12:27:47;1.60;;;1.50;;
18532;SDS011;9396;51.510;11.934;2023-05-10T12:30:18;2.47;;;1.90;;
18532;SDS011;9396;51.510;11.934;2023-05-10T12:32:46;2.10;;;1.90;;
18532;SDS011;9396;51.510;11.934;2023-05-10T12:35:12;2.27;;;2.03;;
18532;SDS011;9396;51.510;11.934;2023-05-10T12:37:40;2.10;;;1.90;;
18532;SDS011;9396;51.510;11.934;2023-05-10T12:40:08;2.73;;;2.10;;
18532;SDS011;9396;51.510;11.934;2023-05-10T12:42:37;1.90;;;1.70;;
18532;SDS011;9396;51.510;11.934;2023-05-10T12:45:05;3.20;;;1.70;;
18532;SDS011;9396;51.510;11.934;2023-05-10T12:47:33;1.60;;;1.50;;
18532;SDS011;9396;51.510;11.934;2023-05-10T12:50:00;2.33;;;1.70;;
18532;SDS011;9396;51.510;11.934;2023-05-10T12:52:27;3.00;;;1.53;;
18532;SDS011;9396;51.510;11.934;2023-05-10T12:54:54;1.70;;;1.60;;
18532;SDS011;9396;51.510;11.934;2023-05-10T12:57:22;1.77;;;1.67;;
18532;SDS011;9396;51.510;11.934;2023-05-10T12:59:49;3.53;;;1.80;;
18532;SDS011;9396;51.510;11.934;2023-05-10T13:02:16;2.00;;;1.80;;
18532;SDS011;9396;51.510;11.934;2023-05-10T13:04:44;2.17;;;1.77;;
18532;SDS011;9396;51.510;11.934;2023-05-10T13:07:11;2.50;;;2.30;;
18532;SDS011;9396;51.510;11.934;2023-05-10T13:09:38;2.67;;;2.10;;
18532;SDS011;9396;51.510;11.934;2023-05-10T13:12:04;3.00;;;2.40;;
18532;SDS011;9396;51.510;11.934;2023-05-10T13:14:33;2.93;;;2.07;;
18532;SDS011;9396;51.510;11.934;2023-05-10T13:16:59;2.57;;;2.33;;
18532;SDS011;9396;51.510;11.934;2023-05-10T13:19:26;2.60;;;2.00;;
18532;SDS011;9396;51.510;11.934;2023-05-10T13:21:53;2.43;;;2.23;;
18532;SDS011;9396;51.510;11.934;2023-05-10T13:24:19;2.70;;;2.20;;
18532;SDS011;9396;51.510;11.934;2023-05-10T13:26:46;2.60;;;2.30;;
18532;SDS011;9396;51.510;11.934;2023-05-10T13:29:13;2.57;;;1.90;;
18532;SDS011;9396;51.510;11.934;2023-05-10T13:31:43;3.90;;;1.97;;
18532;SDS011;9396;51.510;11.934;2023-05-10T13:34:10;2.53;;;2.30;;
18532;SDS011;9396;51.510;11.934;2023-05-10T13:36:37;2.30;;;2.10;;
18532;SDS011;9396;51.510;11.934;2023-05-10T13:39:03;3.00;;;2.40;;
18532;SDS011;9396;51.510;11.934;2023-05-10T13:41:30;5.17;;;2.60;;
18532;SDS011;9396;51.510;11.934;2023-05-10T13:43:57;3.27;;;2.97;;
18532;SDS011;9396;51.510;11.934;2023-05-10T13:46:23;3.63;;;2.67;;
18532;SDS011;9396;51.510;11.934;2023-05-10T13:48:51;3.30;;;3.00;;
18532;SDS011;9396;51.510;11.934;2023-05-10T13:51:18;4.73;;;2.87;;
18532;SDS011;9396;51.510;11.934;2023-05-10T13:53:45;3.83;;;2.90;;
18532;SDS011;9396;51.510;11.934;2023-05-10T13:56:12;3.27;;;2.87;;
18532;SDS011;9396;51.510;11.934;2023-05-10T13:58:39;3.50;;;3.13;;
18532;SDS011;9396;51.510;11.934;2023-05-10T14:01:06;3.23;;;2.93;;
18532;SDS011;9396;51.510;11.934;2023-05-10T14:03:32;5.83;;;3.63;;
18532;SDS011;9396;51.510;11.934;2023-05-10T14:06:01;3.37;;;2.83;;
18532;SDS011;9396;51.510;11.934;2023-05-10T14:08:27;3.67;;;3.20;;
18532;SDS011;9396;51.510;11.934;2023-05-10T14:10:54;5.23;;;2.90;;
18532;SDS011;9396;51.510;11.934;2023-05-10T14:13:21;2.90;;;2.40;;
18532;SDS011;9396;51.510;11.934;2023-05-10T14:15:48;3.70;;;2.90;;
18532;SDS011;9396;51.510;11.934;2023-05-10T14:18:14;4.40;;;2.93;;
18532;SDS011;9396;51.510;11.934;2023-05-10T14:20:41;5.87;;;2.70;;
18532;SDS011;9396;51.510;11.934;2023-05-10T14:23:09;3.30;;;3.00;;
18532;SDS011;9396;51.510;11.934;2023-05-10T14:25:35;3.70;;;3.00;;
18532;SDS011;9396;51.510;11.934;2023-05-10T14:28:03;3.13;;;2.70;;
18532;SDS011;9396;51.510;11.934;2023-05-10T14:30:31;2.97;;;2.77;;
18532;SDS011;9396;51.510;11.934;2023-05-10T14:32:57;3.37;;;3.00;;
18532;SDS011;9396;51.510;11.934;2023-05-10T14:35:26;2.77;;;2.57;;
18532;SDS011;9396;51.510;11.934;2023-05-10T14:37:52;2.70;;;2.50;;
18532;SDS011;9396;51.510;11.934;2023-05-10T14:40:21;3.00;;;2.60;;
18532;SDS011;9396;51.510;11.934;2023-05-10T14:42:47;3.13;;;2.83;;
18532;SDS011;9396;51.510;11.934;2023-05-10T14:45:14;3.20;;;2.70;;
18532;SDS011;9396;51.510;11.934;2023-05-10T14:47:41;3.33;;;3.00;;
18532;SDS011;9396;51.510;11.934;2023-05-10T14:50:07;3.33;;;3.03;;
18532;SDS011;9396;51.510;11.934;2023-05-10T14:52:34;3.33;;;3.03;;
18532;SDS011;9396;51.510;11.934;2023-05-10T14:55:01;2.77;;;2.57;;
18532;SDS011;9396;51.510;11.934;2023-05-10T14:57:29;3.87;;;3.47;;
18532;SDS011;9396;51.510;11.934;2023-05-10T14:59:57;3.77;;;2.80;;
18532;SDS011;9396;51.510;11.934;2023-05-10T15:02:23;4.53;;;3.00;;